createdAt,value
2023-10-06T00:00:21.825Z,58.06
2023-10-06T00:04:13.771Z,57.78
2023-10-06T00:07:48.273Z,57.41
2023-10-06T00:11:12.250Z,57.55
2023-10-06T00:14:41.439Z,58.14
2023-10-06T00:17:49.950Z,58.27
2023-10-06T00:21:08.858Z,58.07
2023-10-06T00:24:17.845Z,58.48
2023-10-06T00:27:22.328Z,58.32
2023-10-06T00:30:23.111Z,57.78
2023-10-06T00:33:19.745Z,58.22
2023-10-06T00:36:45.496Z,58.98
2023-10-06T00:39:54.358Z,58.31
2023-10-06T00:43:02.565Z,58.97
2023-10-06T00:46:30.976Z,61.88
2023-10-06T00:49:24.564Z,59.76
2023-10-06T00:52:34.395Z,59.55
2023-10-06T00:55:45.613Z,60.24
2023-10-06T00:58:57.531Z,60.80
2023-10-06T01:02:16.908Z,61.02
2023-10-06T01:05:18.512Z,60.95
2023-10-06T01:08:22.363Z,60.99
2023-10-06T01:11:33.291Z,60.28
2023-10-06T01:15:10.202Z,60.40
2023-10-06T01:18:29.647Z,60.67
2023-10-06T01:21:19.253Z,61.18
2023-10-06T01:24:28.474Z,62.10
2023-10-06T01:27:24.033Z,63.57
2023-10-06T01:30:44.198Z,62.07
2023-10-06T01:34:07.645Z,62.01
2023-10-06T01:38:07.820Z,62.47
2023-10-06T01:45:50.459Z,62.49
2023-10-06T01:49:14.603Z,63.43
2023-10-06T01:53:50.817Z,64.33
2023-10-06T02:02:22.718Z,63.76
2023-10-06T02:21:27.370Z,64.98
2023-10-06T02:25:07.562Z,64.31
2023-10-06T02:28:39.989Z,65.19
2023-10-06T02:32:18.424Z,65.22
2023-10-06T02:35:55.457Z,65.46
2023-10-06T02:39:37.451Z,65.00
2023-10-06T02:43:37.421Z,64.65
2023-10-06T02:47:08.636Z,64.18
2023-10-06T02:50:42.496Z,64.22
2023-10-06T02:54:21.463Z,64.28
2023-10-06T03:01:42.495Z,65.52
2023-10-06T03:05:05.510Z,65.62
2023-10-06T03:09:30.372Z,67.28
2023-10-06T03:16:28.486Z,65.99
2023-10-06T03:20:31.503Z,66.03
2023-10-06T03:31:47.769Z,66.10
2023-10-06T03:35:38.569Z,66.59
2023-10-06T03:42:55.450Z,66.47
2023-10-06T03:46:05.999Z,66.22
2023-10-06T03:49:28.375Z,66.64
2023-10-06T03:53:27.746Z,68.91
2023-10-06T03:57:24.129Z,67.38
2023-10-06T04:09:50.555Z,67.13
2023-10-06T04:12:55.583Z,67.12
2023-10-06T04:15:59.436Z,67.41
2023-10-06T04:19:15.121Z,67.87
2023-10-06T04:22:41.960Z,67.87
2023-10-06T04:25:47.250Z,67.43
2023-10-06T04:28:51.321Z,68.71
2023-10-06T04:32:04.153Z,68.34
2023-10-06T04:35:05.541Z,68.59
2023-10-06T04:38:34.960Z,70.31
2023-10-06T04:41:47.460Z,68.77
2023-10-06T04:44:46.685Z,68.34
2023-10-06T04:48:35.539Z,67.85
2023-10-06T04:51:44.075Z,67.43
2023-10-06T04:54:54.078Z,68.32
2023-10-06T04:58:04.184Z,68.12
2023-10-06T05:01:09.982Z,69.58
2023-10-06T05:04:59.752Z,68.22
2023-10-06T05:11:39.317Z,67.27
2023-10-06T05:14:40.213Z,67.11
2023-10-06T05:17:38.577Z,68.53
2023-10-06T05:20:57.609Z,68.46
2023-10-06T05:24:11.839Z,67.40
2023-10-06T05:27:18.313Z,66.80
2023-10-06T05:31:04.536Z,67.42
2023-10-06T05:35:22.296Z,67.25
2023-10-06T05:38:54.992Z,66.94
2023-10-06T05:42:35.031Z,66.19
2023-10-06T05:46:03.434Z,65.87
2023-10-06T05:49:49.864Z,65.59
2023-10-06T05:53:29.438Z,65.63
2023-10-06T05:57:00.357Z,64.51
2023-10-06T06:00:26.534Z,63.42
2023-10-06T06:04:14.812Z,63.02
2023-10-06T06:08:10.335Z,63.28
2023-10-06T06:11:51.376Z,63.38
2023-10-06T06:14:34.949Z,63.16
2023-10-06T06:18:01.628Z,62.48
2023-10-06T06:21:35.098Z,61.97
2023-10-06T06:24:55.215Z,61.36
2023-10-06T06:27:58.264Z,60.98
2023-10-06T06:30:51.525Z,60.78
2023-10-06T06:34:01.284Z,60.60
2023-10-06T06:37:14.486Z,60.35
2023-10-06T06:40:21.146Z,59.83
2023-10-06T06:43:47.387Z,59.75
2023-10-06T06:46:52.968Z,59.23
2023-10-06T06:49:49.199Z,58.15
2023-10-06T06:52:40.282Z,57.74
2023-10-06T06:55:14.828Z,58.30
2023-10-06T06:58:10.264Z,57.88
2023-10-06T07:01:05.847Z,57.68
2023-10-06T07:04:22.395Z,57.60
2023-10-06T07:07:05.990Z,57.60
2023-10-06T07:10:01.742Z,56.95
2023-10-06T07:13:25.265Z,56.43
2023-10-06T07:16:02.346Z,56.87
2023-10-06T07:19:00.444Z,56.82
2023-10-06T07:21:35.520Z,55.69
2023-10-06T07:24:21.233Z,55.20
2023-10-06T07:27:07.923Z,54.16
2023-10-06T07:29:54.055Z,55.00
2023-10-06T07:32:33.653Z,55.07
2023-10-06T07:35:56.316Z,54.40
2023-10-06T07:39:30.531Z,51.23
2023-10-06T07:47:14.330Z,52.13
2023-10-06T07:50:20.090Z,51.63
2023-10-06T07:52:54.052Z,51.13
2023-10-06T07:55:31.471Z,49.76
2023-10-06T07:58:16.917Z,49.10
2023-10-06T08:01:04.246Z,48.24
2023-10-06T08:03:56.301Z,49.27
2023-10-06T08:06:32.890Z,49.29
2023-10-06T08:09:07.039Z,48.52
2023-10-06T08:11:51.765Z,46.80
2023-10-06T08:14:44.016Z,47.73
2023-10-06T08:17:33.247Z,46.10
2023-10-06T08:20:34.012Z,47.01
2023-10-06T08:23:17.012Z,45.65
2023-10-06T08:26:19.029Z,45.83
2023-10-06T08:29:00.178Z,45.67
2023-10-06T08:34:53.603Z,45.92
2023-10-06T08:37:38.184Z,43.73
2023-10-06T08:40:09.419Z,44.68
2023-10-06T08:42:42.278Z,44.47
2023-10-06T08:45:27.393Z,43.85
2023-10-06T08:48:04.019Z,43.40
2023-10-06T08:50:34.514Z,43.47
2023-10-06T08:53:14.654Z,44.05
2023-10-06T08:55:46.353Z,43.75
2023-10-06T08:58:27.625Z,44.49
2023-10-06T09:00:57.360Z,43.53
2023-10-06T09:03:35.246Z,43.62
2023-10-06T09:06:21.875Z,42.68
2023-10-06T09:09:31.425Z,42.20
2023-10-06T09:12:28.913Z,42.41
2023-10-06T09:15:56.066Z,41.80
2023-10-06T09:18:30.245Z,41.33
2023-10-06T09:21:39.033Z,41.16
2023-10-06T09:24:30.716Z,41.45
2023-10-06T09:27:29.902Z,40.74
2023-10-06T09:30:14.825Z,41.29
2023-10-06T09:33:42.802Z,40.71
2023-10-06T09:36:36.473Z,40.04
2023-10-06T09:39:39.987Z,41.24
2023-10-06T09:42:42.909Z,40.35
2023-10-06T09:45:34.651Z,39.89
2023-10-06T09:48:35.410Z,40.48
2023-10-06T09:51:15.560Z,40.56
2023-10-06T09:54:29.134Z,40.64
2023-10-06T09:57:18.563Z,40.88
2023-10-06T09:59:54.018Z,40.60
2023-10-06T10:06:02.275Z,40.98
2023-10-06T10:08:55.863Z,40.80
2023-10-06T10:11:40.917Z,40.63
2023-10-06T10:15:01.197Z,40.65
2023-10-06T10:18:23.096Z,39.92
2023-10-06T10:21:31.076Z,40.09
2023-10-06T10:27:49.272Z,40.40
2023-10-06T10:31:42.132Z,40.61
2023-10-06T10:35:14.407Z,40.12
2023-10-06T10:38:06.310Z,40.03
2023-10-06T10:41:19.454Z,40.24
2023-10-06T10:44:25.301Z,40.21
2023-10-06T10:47:38.690Z,39.90
2023-10-06T10:51:24.768Z,40.18
2023-10-06T10:54:30.223Z,40.10
2023-10-06T10:57:23.077Z,39.58
2023-10-06T11:00:28.570Z,39.60
2023-10-06T11:03:27.113Z,37.98
2023-10-06T11:06:32.515Z,37.09
2023-10-06T11:09:42.913Z,37.67
2023-10-06T11:12:46.438Z,36.67
2023-10-06T11:15:35.161Z,36.29
2023-10-06T11:18:45.264Z,37.31
2023-10-06T11:22:03.966Z,37.58
2023-10-06T11:25:14.224Z,37.02
2023-10-06T11:28:06.002Z,37.56
2023-10-06T11:30:51.171Z,36.96
2023-10-06T11:33:33.630Z,37.27
2023-10-06T11:36:03.337Z,36.91
2023-10-06T11:38:42.171Z,36.38
2023-10-06T11:41:25.558Z,34.90
2023-10-06T11:44:16.862Z,34.71
2023-10-06T11:47:13.398Z,33.28
2023-10-06T11:50:01.932Z,32.31
2023-10-06T11:53:25.978Z,32.10
2023-10-06T11:56:16.841Z,32.14
2023-10-06T11:58:49.412Z,32.47
2023-10-06T12:01:38.559Z,30.64
2023-10-06T12:04:24.706Z,30.57
2023-10-06T12:07:10.666Z,29.55
2023-10-06T12:09:43.040Z,28.51
2023-10-06T12:12:26.828Z,28.17
2023-10-06T12:15:05.540Z,27.49
2023-10-06T12:17:39.971Z,27.30
2023-10-06T12:20:36.947Z,28.36
2023-10-06T12:23:11.964Z,27.50
2023-10-06T12:25:40.923Z,26.25
2023-10-06T12:28:15.309Z,24.14
2023-10-06T12:30:59.034Z,24.09
2023-10-06T12:33:45.037Z,24.38
2023-10-06T12:36:20.616Z,23.78
2023-10-06T12:38:49.600Z,23.26
2023-10-06T12:41:19.271Z,23.70
2023-10-06T12:43:49.319Z,23.57
2023-10-06T12:46:28.079Z,22.12
2023-10-06T12:49:22.788Z,21.92
2023-10-06T12:51:54.460Z,22.08
2023-10-06T12:54:33.721Z,22.49
2023-10-06T12:57:08.086Z,22.42
2023-10-06T12:59:50.644Z,21.87
2023-10-06T13:02:36.743Z,21.11
2023-10-06T13:08:23.088Z,21.17
2023-10-06T13:11:03.726Z,21.19
2023-10-06T13:13:40.963Z,20.81
2023-10-06T13:16:13.399Z,20.72
2023-10-06T13:18:55.436Z,20.63
2023-10-06T13:21:26.796Z,20.51
2023-10-06T13:24:01.384Z,20.15
2023-10-06T13:26:44.362Z,19.68
2023-10-06T13:29:28.081Z,19.92
2023-10-06T13:31:57.126Z,19.48
2023-10-06T13:34:31.664Z,19.95
2023-10-06T13:37:03.558Z,19.95
2023-10-06T13:39:35.513Z,20.03
2023-10-06T13:42:16.833Z,19.86
2023-10-06T13:44:57.450Z,20.03
2023-10-06T13:47:27.266Z,21.23
2023-10-06T13:50:05.197Z,22.02
2023-10-06T13:52:54.178Z,22.83
2023-10-06T13:55:49.036Z,24.04
2023-10-06T13:59:05.796Z,24.98
2023-10-06T14:06:45.839Z,27.49
2023-10-06T14:09:44.286Z,28.62
2023-10-06T14:12:21.798Z,29.08
2023-10-06T14:15:31.860Z,29.35
2023-10-06T14:18:06.552Z,29.59
2023-10-06T14:20:50.710Z,30.07
2023-10-06T14:23:37.501Z,30.30
2023-10-06T14:26:15.627Z,30.59
2023-10-06T14:28:50.493Z,31.05
2023-10-06T14:31:35.928Z,32.15
2023-10-06T14:34:42.568Z,32.27
2023-10-06T14:38:07.445Z,32.18
2023-10-06T14:41:45.381Z,33.89
2023-10-06T14:44:37.688Z,33.56
2023-10-06T14:51:23.324Z,34.51
2023-10-06T14:54:32.424Z,34.59
2023-10-06T14:58:04.104Z,35.46
2023-10-06T15:01:45.498Z,35.15
2023-10-06T15:05:15.381Z,35.32
2023-10-06T15:08:57.542Z,35.69
2023-10-06T15:12:06.557Z,36.14
2023-10-06T15:15:29.099Z,36.38
2023-10-06T15:19:07.470Z,36.71
2023-10-06T15:22:28.074Z,36.86
2023-10-06T15:26:00.587Z,37.24
2023-10-06T15:29:16.209Z,37.37
2023-10-06T15:37:52.900Z,37.69
2023-10-06T15:40:50.972Z,38.07
2023-10-06T15:43:56.317Z,38.48
2023-10-06T15:47:22.448Z,38.37
2023-10-06T15:50:36.656Z,38.64
2023-10-06T15:53:37.919Z,38.77
2023-10-06T15:56:57.464Z,39.79
2023-10-06T16:00:27.731Z,39.85
2023-10-06T16:03:35.620Z,40.68
2023-10-06T16:07:09.120Z,41.20
2023-10-06T16:10:35.671Z,40.87
2023-10-06T16:13:34.778Z,40.52
2023-10-06T16:17:01.101Z,41.21
2023-10-06T16:20:30.472Z,41.10
2023-10-06T16:24:05.059Z,40.91
2023-10-06T16:27:25.793Z,41.16
2023-10-06T16:30:19.717Z,41.86
2023-10-06T16:33:19.624Z,41.38
2023-10-06T16:36:53.918Z,42.31
2023-10-06T16:40:21.804Z,42.58
2023-10-06T16:43:26.520Z,42.98
2023-10-06T16:46:53.886Z,43.22
2023-10-06T16:50:26.379Z,44.57
2023-10-06T16:53:35.952Z,43.91
2023-10-06T16:56:45.205Z,44.66
2023-10-06T17:00:25.678Z,44.74
2023-10-06T17:03:51.716Z,43.71
2023-10-06T17:07:40.129Z,44.13
2023-10-06T17:10:46.326Z,44.32
2023-10-06T17:14:12.274Z,44.27
2023-10-06T17:17:28.477Z,45.25
2023-10-06T17:20:13.240Z,45.90
2023-10-06T17:23:35.450Z,45.04
2023-10-06T17:27:19.194Z,44.77
2023-10-06T17:30:41.842Z,45.38
2023-10-06T17:34:36.257Z,45.27
2023-10-06T17:37:57.855Z,45.36
2023-10-06T17:41:19.365Z,46.40
2023-10-06T17:44:32.017Z,45.86
2023-10-06T17:48:05.757Z,45.72
2023-10-06T17:59:46.565Z,47.04
2023-10-06T18:03:14.346Z,47.33
2023-10-06T18:05:57.333Z,46.84
2023-10-06T18:09:14.134Z,47.55
2023-10-06T18:12:54.906Z,47.59
2023-10-06T18:16:44.304Z,48.09
2023-10-06T18:20:32.988Z,48.34
2023-10-06T18:23:48.608Z,48.95
2023-10-06T18:27:22.102Z,50.48
2023-10-06T18:31:10.459Z,49.79
2023-10-06T18:35:02.555Z,49.47
2023-10-06T18:38:43.846Z,49.91
2023-10-06T18:42:18.601Z,50.15
2023-10-06T18:45:35.477Z,50.43
2023-10-06T18:48:57.007Z,51.03
2023-10-06T18:52:18.306Z,51.22
2023-10-06T18:55:23.563Z,51.78
2023-10-06T18:59:04.708Z,52.51
2023-10-06T19:02:11.820Z,51.86
2023-10-06T19:05:26.796Z,52.13
2023-10-06T19:08:32.793Z,52.22
2023-10-06T19:12:21.013Z,52.52
2023-10-06T19:15:54.089Z,53.03
2023-10-06T19:19:19.169Z,53.24
2023-10-06T19:22:50.101Z,54.15
2023-10-06T19:26:32.227Z,54.74
2023-10-06T19:30:30.214Z,53.76
2023-10-06T19:34:09.726Z,54.00
2023-10-06T19:37:59.278Z,54.79
2023-10-06T19:41:34.385Z,55.54
2023-10-06T19:44:54.950Z,55.91
2023-10-06T19:48:28.312Z,56.02
2023-10-06T19:51:56.690Z,56.34
2023-10-06T19:55:25.731Z,56.55
2023-10-06T19:58:52.779Z,56.62
2023-10-06T20:02:14.728Z,57.03
2023-10-06T20:05:32.068Z,57.62
2023-10-06T20:08:56.699Z,61.03
2023-10-06T20:12:32.258Z,62.39
2023-10-06T20:15:53.302Z,62.65
2023-10-06T20:19:28.280Z,61.84
2023-10-06T20:22:53.483Z,60.49
2023-10-06T20:26:02.561Z,61.96
2023-10-06T20:29:19.079Z,61.64
2023-10-06T20:32:10.231Z,61.56
2023-10-06T20:39:24.266Z,63.38
2023-10-06T20:43:09.461Z,61.50
2023-10-06T20:46:46.121Z,61.31
2023-10-06T20:50:18.129Z,62.52
2023-10-06T20:53:59.013Z,62.41
2023-10-06T20:57:33.836Z,63.86
2023-10-06T21:01:22.228Z,63.88
2023-10-06T21:05:03.204Z,64.62
2023-10-06T21:08:31.179Z,64.92
2023-10-06T21:11:49.734Z,64.02
2023-10-06T21:15:00.910Z,64.31
2023-10-06T21:18:11.813Z,64.88
2023-10-06T21:21:32.140Z,62.94
2023-10-06T21:24:49.782Z,64.68
2023-10-06T21:32:50.837Z,67.48
2023-10-06T21:40:11.425Z,67.80
2023-10-06T21:43:54.073Z,66.08
2023-10-06T21:47:24.759Z,66.68
2023-10-06T21:51:22.879Z,67.98
2023-10-06T21:54:44.353Z,67.08
2023-10-06T21:58:33.842Z,66.80
2023-10-06T22:02:14.751Z,68.68
2023-10-06T22:05:55.520Z,68.13
2023-10-06T22:09:30.253Z,68.31
2023-10-06T22:13:19.683Z,67.02
2023-10-06T22:17:19.983Z,67.26
2023-10-06T22:21:10.108Z,68.43
2023-10-06T22:24:32.541Z,67.59
2023-10-06T22:28:07.974Z,67.71
2023-10-06T22:31:50.545Z,69.77
2023-10-06T22:35:31.716Z,68.92
2023-10-06T22:39:14.663Z,70.38
2023-10-06T22:42:49.222Z,70.57
2023-10-06T22:46:24.220Z,69.85
2023-10-06T22:50:05.846Z,67.74
2023-10-06T22:53:39.686Z,67.26
2023-10-06T22:57:21.831Z,68.02
2023-10-06T23:01:01.602Z,70.19
2023-10-06T23:04:42.511Z,70.07
2023-10-06T23:08:27.617Z,68.51
2023-10-06T23:12:02.682Z,71.07
2023-10-06T23:15:53.005Z,70.35
2023-10-06T23:19:07.163Z,68.94
2023-10-06T23:22:49.320Z,69.47
2023-10-06T23:27:02.763Z,70.03
2023-10-06T23:30:59.477Z,71.88
2023-10-06T23:34:39.241Z,73.06
2023-10-06T23:38:29.321Z,72.37
2023-10-06T23:41:32.759Z,73.64
2023-10-06T23:44:53.637Z,73.69
2023-10-06T23:48:20.874Z,71.72
2023-10-06T23:51:24.505Z,71.38
2023-10-06T23:55:21.339Z,72.29
2023-10-06T23:58:38.834Z,70.72
